sensor_id;sensor_type;location;lat;lon;timestamp;P1;durP1;ratioP1;P2;durP2;ratioP2
75993;SDS011;64680;53.800;9.988;2023-08-06T00:01:50;2.80;;;1.65;;
75993;SDS011;64680;53.800;9.988;2023-08-06T00:04:16;2.50;;;1.75;;
75993;SDS011;64680;53.800;9.988;2023-08-06T00:06:41;2.65;;;1.80;;
75993;SDS011;64680;53.800;9.988;2023-08-06T00:09:07;4.22;;;2.65;;
75993;SDS011;64680;53.800;9.988;2023-08-06T00:11:33;2.13;;;1.65;;
75993;SDS011;64680;53.800;9.988;2023-08-06T00:13:58;2.65;;;1.85;;
75993;SDS011;64680;53.800;9.988;2023-08-06T00:16:24;2.58;;;1.73;;
75993;SDS011;64680;53.800;9.988;2023-08-06T00:18:50;3.08;;;1.90;;
75993;SDS011;64680;53.800;9.988;2023-08-06T00:21:15;2.90;;;1.90;;
75993;SDS011;64680;53.800;9.988;2023-08-06T00:23:41;3.28;;;2.17;;
75993;SDS011;64680;53.800;9.988;2023-08-06T00:26:06;2.80;;;1.80;;
75993;SDS011;64680;53.800;9.988;2023-08-06T00:28:32;2.70;;;2.05;;
75993;SDS011;64680;53.800;9.988;2023-08-06T00:30:58;2.83;;;1.65;;
75993;SDS011;64680;53.800;9.988;2023-08-06T00:33:23;2.60;;;1.80;;
75993;SDS011;64680;53.800;9.988;2023-08-06T00:35:49;2.55;;;1.83;;
75993;SDS011;64680;53.800;9.988;2023-08-06T00:38:16;2.72;;;1.70;;
75993;SDS011;64680;53.800;9.988;2023-08-06T00:40:41;2.15;;;1.73;;
75993;SDS011;64680;53.800;9.988;2023-08-06T00:43:07;2.53;;;1.73;;
75993;SDS011;64680;53.800;9.988;2023-08-06T00:45:33;2.38;;;1.80;;
75993;SDS011;64680;53.800;9.988;2023-08-06T00:48:01;2.55;;;1.85;;
75993;SDS011;64680;53.800;9.988;2023-08-06T00:50:28;2.67;;;1.67;;
75993;SDS011;64680;53.800;9.988;2023-08-06T00:52:54;2.40;;;1.85;;
75993;SDS011;64680;53.800;9.988;2023-08-06T00:55:20;2.22;;;1.88;;
75993;SDS011;64680;53.800;9.988;2023-08-06T00:57:46;2.63;;;1.88;;
75993;SDS011;64680;53.800;9.988;2023-08-06T01:00:12;2.72;;;2.22;;
75993;SDS011;64680;53.800;9.988;2023-08-06T01:02:38;2.08;;;1.77;;
75993;SDS011;64680;53.800;9.988;2023-08-06T01:05:03;2.25;;;1.70;;
75993;SDS011;64680;53.800;9.988;2023-08-06T01:15:39;4.03;;;2.60;;
75993;SDS011;64680;53.800;9.988;2023-08-06T01:18:08;2.38;;;1.83;;
75993;SDS011;64680;53.800;9.988;2023-08-06T01:20:35;2.45;;;2.05;;
75993;SDS011;64680;53.800;9.988;2023-08-06T01:23:00;3.85;;;2.25;;
75993;SDS011;64680;53.800;9.988;2023-08-06T01:25:30;3.08;;;2.42;;
75993;SDS011;64680;53.800;9.988;2023-08-06T01:28:18;2.50;;;2.00;;
75993;SDS011;64680;53.800;9.988;2023-08-06T01:30:56;2.97;;;2.08;;
75993;SDS011;64680;53.800;9.988;2023-08-06T01:33:25;3.55;;;2.92;;
75993;SDS011;64680;53.800;9.988;2023-08-06T01:35:53;3.20;;;2.35;;
75993;SDS011;64680;53.800;9.988;2023-08-06T01:38:20;3.60;;;2.65;;
75993;SDS011;64680;53.800;9.988;2023-08-06T01:40:46;4.47;;;3.63;;
75993;SDS011;64680;53.800;9.988;2023-08-06T01:43:12;3.60;;;2.30;;
75993;SDS011;64680;53.800;9.988;2023-08-06T01:45:37;4.47;;;2.72;;
75993;SDS011;64680;53.800;9.988;2023-08-06T01:48:03;3.60;;;2.78;;
75993;SDS011;64680;53.800;9.988;2023-08-06T01:50:28;4.65;;;2.63;;
75993;SDS011;64680;53.800;9.988;2023-08-06T01:52:54;4.78;;;2.20;;
75993;SDS011;64680;53.800;9.988;2023-08-06T01:55:19;3.38;;;2.58;;
75993;SDS011;64680;53.800;9.988;2023-08-06T01:57:45;4.43;;;2.80;;
75993;SDS011;64680;53.800;9.988;2023-08-06T02:00:11;3.20;;;2.53;;
75993;SDS011;64680;53.800;9.988;2023-08-06T02:02:37;3.30;;;2.20;;
75993;SDS011;64680;53.800;9.988;2023-08-06T02:05:02;3.72;;;2.40;;
75993;SDS011;64680;53.800;9.988;2023-08-06T02:07:29;3.00;;;2.50;;
75993;SDS011;64680;53.800;9.988;2023-08-06T02:09:54;3.28;;;2.42;;
75993;SDS011;64680;53.800;9.988;2023-08-06T02:12:20;2.85;;;2.58;;
75993;SDS011;64680;53.800;9.988;2023-08-06T02:14:45;4.63;;;2.53;;
75993;SDS011;64680;53.800;9.988;2023-08-06T02:17:11;4.38;;;2.83;;
75993;SDS011;64680;53.800;9.988;2023-08-06T02:19:36;3.13;;;2.67;;
75993;SDS011;64680;53.800;9.988;2023-08-06T02:22:02;4.35;;;3.47;;
75993;SDS011;64680;53.800;9.988;2023-08-06T02:24:27;4.55;;;2.83;;
75993;SDS011;64680;53.800;9.988;2023-08-06T02:26:53;4.90;;;2.47;;
75993;SDS011;64680;53.800;9.988;2023-08-06T02:29:20;3.40;;;2.72;;
75993;SDS011;64680;53.800;9.988;2023-08-06T02:31:46;3.50;;;2.97;;
75993;SDS011;64680;53.800;9.988;2023-08-06T02:34:11;2.75;;;2.47;;
75993;SDS011;64680;53.800;9.988;2023-08-06T02:36:37;4.05;;;3.05;;
75993;SDS011;64680;53.800;9.988;2023-08-06T02:39:02;6.03;;;3.55;;
75993;SDS011;64680;53.800;9.988;2023-08-06T02:41:28;4.78;;;3.13;;
75993;SDS011;64680;53.800;9.988;2023-08-06T02:43:53;4.70;;;2.53;;
75993;SDS011;64680;53.800;9.988;2023-08-06T02:46:19;4.32;;;2.80;;
75993;SDS011;64680;53.800;9.988;2023-08-06T02:48:44;4.47;;;2.92;;
75993;SDS011;64680;53.800;9.988;2023-08-06T02:51:10;3.83;;;2.75;;
75993;SDS011;64680;53.800;9.988;2023-08-06T02:53:36;6.88;;;3.13;;
75993;SDS011;64680;53.800;9.988;2023-08-06T02:56:01;4.43;;;2.92;;
75993;SDS011;64680;53.800;9.988;2023-08-06T02:58:27;4.82;;;2.90;;
75993;SDS011;64680;53.800;9.988;2023-08-06T03:01:03;4.47;;;2.75;;
75993;SDS011;64680;53.800;9.988;2023-08-06T03:03:30;4.70;;;2.70;;
75993;SDS011;64680;53.800;9.988;2023-08-06T03:05:56;3.35;;;2.42;;
75993;SDS011;64680;53.800;9.988;2023-08-06T03:08:22;4.32;;;2.67;;
75993;SDS011;64680;53.800;9.988;2023-08-06T03:10:48;4.05;;;3.00;;
75993;SDS011;64680;53.800;9.988;2023-08-06T03:13:14;5.68;;;3.15;;
75993;SDS011;64680;53.800;9.988;2023-08-06T03:15:40;4.38;;;2.95;;
75993;SDS011;64680;53.800;9.988;2023-08-06T03:18:06;4.45;;;3.03;;
75993;SDS011;64680;53.800;9.988;2023-08-06T03:20:32;6.20;;;3.72;;
75993;SDS011;64680;53.800;9.988;2023-08-06T03:22:57;5.78;;;2.92;;
75993;SDS011;64680;53.800;9.988;2023-08-06T03:25:23;4.38;;;2.75;;
75993;SDS011;64680;53.800;9.988;2023-08-06T03:27:48;5.25;;;3.47;;
75993;SDS011;64680;53.800;9.988;2023-08-06T03:30:14;4.18;;;2.75;;
75993;SDS011;64680;53.800;9.988;2023-08-06T03:32:40;3.55;;;2.65;;
75993;SDS011;64680;53.800;9.988;2023-08-06T03:35:05;4.95;;;2.95;;
75993;SDS011;64680;53.800;9.988;2023-08-06T03:37:31;5.72;;;3.22;;
75993;SDS011;64680;53.800;9.988;2023-08-06T03:39:57;4.32;;;2.95;;
75993;SDS011;64680;53.800;9.988;2023-08-06T03:42:22;4.53;;;2.53;;
75993;SDS011;64680;53.800;9.988;2023-08-06T03:44:48;4.25;;;2.42;;
75993;SDS011;64680;53.800;9.988;2023-08-06T03:47:13;3.25;;;2.55;;
75993;SDS011;64680;53.800;9.988;2023-08-06T03:49:39;4.00;;;2.53;;
75993;SDS011;64680;53.800;9.988;2023-08-06T03:52:05;3.65;;;2.70;;
75993;SDS011;64680;53.800;9.988;2023-08-06T03:54:31;4.82;;;2.83;;
75993;SDS011;64680;53.800;9.988;2023-08-06T03:56:56;6.95;;;3.40;;
75993;SDS011;64680;53.800;9.988;2023-08-06T03:59:22;5.40;;;3.13;;
75993;SDS011;64680;53.800;9.988;2023-08-06T04:01:48;5.13;;;2.83;;
75993;SDS011;64680;53.800;9.988;2023-08-06T04:04:13;4.60;;;2.88;;
75993;SDS011;64680;53.800;9.988;2023-08-06T04:06:39;5.10;;;2.83;;
75993;SDS011;64680;53.800;9.988;2023-08-06T04:09:04;3.83;;;2.40;;
75993;SDS011;64680;53.800;9.988;2023-08-06T04:11:30;5.05;;;3.00;;
75993;SDS011;64680;53.800;9.988;2023-08-06T04:13:55;4.50;;;2.63;;
75993;SDS011;64680;53.800;9.988;2023-08-06T04:16:21;4.80;;;2.72;;
75993;SDS011;64680;53.800;9.988;2023-08-06T04:18:47;6.38;;;2.85;;
75993;SDS011;64680;53.800;9.988;2023-08-06T04:21:12;5.38;;;2.83;;
75993;SDS011;64680;53.800;9.988;2023-08-06T04:23:38;3.63;;;2.63;;
75993;SDS011;64680;53.800;9.988;2023-08-06T04:26:03;5.22;;;2.95;;
75993;SDS011;64680;53.800;9.988;2023-08-06T04:28:29;7.00;;;3.13;;
75993;SDS011;64680;53.800;9.988;2023-08-06T04:30:55;5.90;;;3.20;;
75993;SDS011;64680;53.800;9.988;2023-08-06T04:33:21;6.10;;;3.33;;
75993;SDS011;64680;53.800;9.988;2023-08-06T04:35:46;3.78;;;2.60;;
75993;SDS011;64680;53.800;9.988;2023-08-06T04:38:12;5.20;;;3.00;;
75993;SDS011;64680;53.800;9.988;2023-08-06T04:40:37;6.38;;;3.40;;
75993;SDS011;64680;53.800;9.988;2023-08-06T04:43:03;4.30;;;3.03;;
75993;SDS011;64680;53.800;9.988;2023-08-06T04:45:29;7.40;;;2.90;;
75993;SDS011;64680;53.800;9.988;2023-08-06T04:47:54;4.75;;;2.72;;
75993;SDS011;64680;53.800;9.988;2023-08-06T04:50:20;5.13;;;3.20;;
75993;SDS011;64680;53.800;9.988;2023-08-06T04:52:45;5.35;;;2.75;;
75993;SDS011;64680;53.800;9.988;2023-08-06T04:55:11;8.50;;;3.42;;
75993;SDS011;64680;53.800;9.988;2023-08-06T04:57:37;4.43;;;2.70;;
75993;SDS011;64680;53.800;9.988;2023-08-06T05:00:02;5.10;;;3.20;;
75993;SDS011;64680;53.800;9.988;2023-08-06T05:02:29;8.77;;;3.08;;
75993;SDS011;64680;53.800;9.988;2023-08-06T05:04:57;5.45;;;3.70;;
75993;SDS011;64680;53.800;9.988;2023-08-06T05:07:23;5.20;;;2.88;;
75993;SDS011;64680;53.800;9.988;2023-08-06T05:09:48;4.35;;;3.28;;
75993;SDS011;64680;53.800;9.988;2023-08-06T05:12:14;9.10;;;3.85;;
75993;SDS011;64680;53.800;9.988;2023-08-06T05:14:39;3.80;;;2.55;;
75993;SDS011;64680;53.800;9.988;2023-08-06T05:17:05;5.22;;;3.38;;
75993;SDS011;64680;53.800;9.988;2023-08-06T05:19:31;5.40;;;2.95;;
75993;SDS011;64680;53.800;9.988;2023-08-06T05:21:56;6.00;;;3.35;;
75993;SDS011;64680;53.800;9.988;2023-08-06T05:24:22;5.53;;;2.83;;
75993;SDS011;64680;53.800;9.988;2023-08-06T05:26:47;5.20;;;3.10;;
75993;SDS011;64680;53.800;9.988;2023-08-06T05:29:13;5.53;;;3.10;;
75993;SDS011;64680;53.800;9.988;2023-08-06T05:31:39;4.82;;;3.13;;
75993;SDS011;64680;53.800;9.988;2023-08-06T05:34:04;3.95;;;2.75;;
75993;SDS011;64680;53.800;9.988;2023-08-06T05:36:30;5.57;;;3.60;;
75993;SDS011;64680;53.800;9.988;2023-08-06T05:38:56;5.28;;;3.28;;
75993;SDS011;64680;53.800;9.988;2023-08-06T05:41:21;5.90;;;3.58;;
75993;SDS011;64680;53.800;9.988;2023-08-06T05:43:47;5.45;;;3.40;;
75993;SDS011;64680;53.800;9.988;2023-08-06T05:46:12;5.63;;;3.83;;
75993;SDS011;64680;53.800;9.988;2023-08-06T05:48:38;5.75;;;3.92;;
75993;SDS011;64680;53.800;9.988;2023-08-06T05:51:03;7.53;;;3.65;;
75993;SDS011;64680;53.800;9.988;2023-08-06T05:53:29;6.72;;;3.60;;
75993;SDS011;64680;53.800;9.988;2023-08-06T05:55:55;5.72;;;3.78;;
75993;SDS011;64680;53.800;9.988;2023-08-06T05:58:21;5.45;;;3.53;;
75993;SDS011;64680;53.800;9.988;2023-08-06T06:00:46;5.53;;;3.70;;
75993;SDS011;64680;53.800;9.988;2023-08-06T06:03:12;6.13;;;3.25;;
75993;SDS011;64680;53.800;9.988;2023-08-06T06:05:38;5.43;;;3.55;;
75993;SDS011;64680;53.800;9.988;2023-08-06T06:08:04;4.80;;;3.58;;
75993;SDS011;64680;53.800;9.988;2023-08-06T06:10:29;6.05;;;4.10;;
75993;SDS011;64680;53.800;9.988;2023-08-06T06:12:55;4.50;;;3.10;;
75993;SDS011;64680;53.800;9.988;2023-08-06T06:15:20;5.38;;;3.55;;
75993;SDS011;64680;53.800;9.988;2023-08-06T06:17:46;8.32;;;3.75;;
75993;SDS011;64680;53.800;9.988;2023-08-06T06:20:12;5.93;;;4.28;;
75993;SDS011;64680;53.800;9.988;2023-08-06T06:22:37;7.15;;;4.57;;
75993;SDS011;64680;53.800;9.988;2023-08-06T06:25:03;4.93;;;3.83;;
75993;SDS011;64680;53.800;9.988;2023-08-06T06:27:29;6.78;;;4.13;;
75993;SDS011;64680;53.800;9.988;2023-08-06T06:29:54;6.82;;;4.78;;
75993;SDS011;64680;53.800;9.988;2023-08-06T06:32:20;8.80;;;4.28;;
75993;SDS011;64680;53.800;9.988;2023-08-06T06:34:46;6.38;;;4.13;;
75993;SDS011;64680;53.800;9.988;2023-08-06T06:37:12;5.75;;;4.28;;
75993;SDS011;64680;53.800;9.988;2023-08-06T06:39:38;7.80;;;4.72;;
75993;SDS011;64680;53.800;9.988;2023-08-06T06:42:04;6.63;;;3.92;;
75993;SDS011;64680;53.800;9.988;2023-08-06T06:44:30;7.38;;;4.40;;
75993;SDS011;64680;53.800;9.988;2023-08-06T06:46:55;7.38;;;4.95;;
75993;SDS011;64680;53.800;9.988;2023-08-06T06:49:21;7.88;;;4.13;;
75993;SDS011;64680;53.800;9.988;2023-08-06T06:51:46;6.35;;;4.40;;
75993;SDS011;64680;53.800;9.988;2023-08-06T06:54:12;7.90;;;4.60;;
75993;SDS011;64680;53.800;9.988;2023-08-06T06:56:38;6.90;;;3.80;;
75993;SDS011;64680;53.800;9.988;2023-08-06T06:59:03;8.98;;;5.07;;
75993;SDS011;64680;53.800;9.988;2023-08-06T07:01:29;9.80;;;5.05;;
75993;SDS011;64680;53.800;9.988;2023-08-06T07:03:55;5.57;;;3.50;;
75993;SDS011;64680;53.800;9.988;2023-08-06T07:06:20;7.60;;;4.15;;
75993;SDS011;64680;53.800;9.988;2023-08-06T07:08:46;5.95;;;4.97;;
75993;SDS011;64680;53.800;9.988;2023-08-06T07:11:12;5.75;;;4.15;;
75993;SDS011;64680;53.800;9.988;2023-08-06T07:13:37;8.00;;;4.80;;
75993;SDS011;64680;53.800;9.988;2023-08-06T07:16:03;6.00;;;4.35;;
75993;SDS011;64680;53.800;9.988;2023-08-06T07:18:28;7.97;;;4.32;;
75993;SDS011;64680;53.800;9.988;2023-08-06T07:20:54;9.82;;;5.40;;
75993;SDS011;64680;53.800;9.988;2023-08-06T07:23:21;6.03;;;4.07;;
75993;SDS011;64680;53.800;9.988;2023-08-06T07:25:47;7.13;;;4.95;;
75993;SDS011;64680;53.800;9.988;2023-08-06T07:28:14;7.22;;;4.85;;
75993;SDS011;64680;53.800;9.988;2023-08-06T07:30:40;7.65;;;5.30;;
75993;SDS011;64680;53.800;9.988;2023-08-06T07:33:06;6.55;;;4.55;;
75993;SDS011;64680;53.800;9.988;2023-08-06T07:35:32;5.60;;;4.28;;
75993;SDS011;64680;53.800;9.988;2023-08-06T07:37:58;5.88;;;3.85;;
75993;SDS011;64680;53.800;9.988;2023-08-06T07:40:24;6.05;;;4.25;;
75993;SDS011;64680;53.800;9.988;2023-08-06T07:42:49;7.18;;;4.75;;
75993;SDS011;64680;53.800;9.988;2023-08-06T07:45:15;7.20;;;4.47;;
75993;SDS011;64680;53.800;9.988;2023-08-06T07:47:41;9.98;;;5.15;;
75993;SDS011;64680;53.800;9.988;2023-08-06T07:50:08;8.57;;;4.95;;
75993;SDS011;64680;53.800;9.988;2023-08-06T07:52:34;7.97;;;5.10;;
75993;SDS011;64680;53.800;9.988;2023-08-06T07:55:00;7.20;;;4.65;;
75993;SDS011;64680;53.800;9.988;2023-08-06T07:57:29;9.20;;;4.97;;
75993;SDS011;64680;53.800;9.988;2023-08-06T07:59:59;7.07;;;5.20;;
75993;SDS011;64680;53.800;9.988;2023-08-06T08:02:25;10.02;;;5.65;;
75993;SDS011;64680;53.800;9.988;2023-08-06T08:04:51;7.28;;;4.43;;
75993;SDS011;64680;53.800;9.988;2023-08-06T08:07:16;10.88;;;6.00;;
75993;SDS011;64680;53.800;9.988;2023-08-06T08:09:43;10.05;;;5.22;;
75993;SDS011;64680;53.800;9.988;2023-08-06T08:12:08;7.75;;;5.07;;
75993;SDS011;64680;53.800;9.988;2023-08-06T08:14:34;9.20;;;5.25;;
75993;SDS011;64680;53.800;9.988;2023-08-06T08:17:04;7.95;;;5.82;;
75993;SDS011;64680;53.800;9.988;2023-08-06T08:19:30;9.90;;;6.28;;
75993;SDS011;64680;53.800;9.988;2023-08-06T08:21:56;10.57;;;5.50;;
75993;SDS011;64680;53.800;9.988;2023-08-06T08:24:22;7.97;;;5.45;;
75993;SDS011;64680;53.800;9.988;2023-08-06T08:26:51;10.35;;;7.10;;
75993;SDS011;64680;53.800;9.988;2023-08-06T08:29:17;10.13;;;6.22;;
75993;SDS011;64680;53.800;9.988;2023-08-06T08:31:42;8.43;;;6.80;;
75993;SDS011;64680;53.800;9.988;2023-08-06T08:34:09;6.93;;;5.28;;
75993;SDS011;64680;53.800;9.988;2023-08-06T08:36:35;9.20;;;6.53;;
75993;SDS011;64680;53.800;9.988;2023-08-06T08:39:00;12.18;;;7.13;;
75993;SDS011;64680;53.800;9.988;2023-08-06T08:41:32;10.90;;;6.90;;
75993;SDS011;64680;53.800;9.988;2023-08-06T08:48:51;8.32;;;6.85;;
75993;SDS011;64680;53.800;9.988;2023-08-06T08:51:18;9.18;;;5.97;;
75993;SDS011;64680;53.800;9.988;2023-08-06T08:53:45;8.93;;;6.22;;
75993;SDS011;64680;53.800;9.988;2023-08-06T08:56:14;9.95;;;7.22;;
75993;SDS011;64680;53.800;9.988;2023-08-06T08:58:40;9.30;;;6.05;;
75993;SDS011;64680;53.800;9.988;2023-08-06T09:01:07;11.40;;;7.03;;
75993;SDS011;64680;53.800;9.988;2023-08-06T09:05:59;9.07;;;6.15;;
75993;SDS011;64680;53.800;9.988;2023-08-06T09:10:56;10.23;;;5.55;;
75993;SDS011;64680;53.800;9.988;2023-08-06T09:13:22;10.68;;;6.32;;
75993;SDS011;64680;53.800;9.988;2023-08-06T09:15:48;8.25;;;5.53;;
75993;SDS011;64680;53.800;9.988;2023-08-06T09:18:17;9.45;;;5.55;;
75993;SDS011;64680;53.800;9.988;2023-08-06T09:20:51;7.50;;;5.15;;
75993;SDS011;64680;53.800;9.988;2023-08-06T09:23:17;10.40;;;7.32;;
75993;SDS011;64680;53.800;9.988;2023-08-06T09:25:42;11.57;;;7.07;;
75993;SDS011;64680;53.800;9.988;2023-08-06T09:28:09;7.22;;;5.53;;
75993;SDS011;64680;53.800;9.988;2023-08-06T09:30:36;7.13;;;5.07;;
75993;SDS011;64680;53.800;9.988;2023-08-06T09:33:02;11.75;;;5.80;;
75993;SDS011;64680;53.800;9.988;2023-08-06T09:35:29;8.05;;;4.63;;
75993;SDS011;64680;53.800;9.988;2023-08-06T09:37:56;7.00;;;4.72;;
75993;SDS011;64680;53.800;9.988;2023-08-06T09:40:35;6.72;;;4.75;;
75993;SDS011;64680;53.800;9.988;2023-08-06T09:43:01;10.05;;;5.82;;
75993;SDS011;64680;53.800;9.988;2023-08-06T09:47:58;8.75;;;6.57;;
75993;SDS011;64680;53.800;9.988;2023-08-06T09:50:27;7.30;;;4.75;;
75993;SDS011;64680;53.800;9.988;2023-08-06T09:52:55;6.20;;;4.60;;
75993;SDS011;64680;53.800;9.988;2023-08-06T09:55:21;9.52;;;5.45;;
75993;SDS011;64680;53.800;9.988;2023-08-06T09:57:49;8.95;;;5.38;;
75993;SDS011;64680;53.800;9.988;2023-08-06T10:00:16;8.20;;;5.90;;
75993;SDS011;64680;53.800;9.988;2023-08-06T10:02:43;7.03;;;5.82;;
75993;SDS011;64680;53.800;9.988;2023-08-06T10:05:10;8.18;;;6.07;;
75993;SDS011;64680;53.800;9.988;2023-08-06T10:07:36;9.30;;;6.45;;
75993;SDS011;64680;53.800;9.988;2023-08-06T10:10:04;7.22;;;5.70;;
75993;SDS011;64680;53.800;9.988;2023-08-06T10:12:39;7.68;;;5.78;;
75993;SDS011;64680;53.800;9.988;2023-08-06T10:15:10;9.55;;;6.78;;
75993;SDS011;64680;53.800;9.988;2023-08-06T10:17:38;9.25;;;5.82;;
75993;SDS011;64680;53.800;9.988;2023-08-06T10:20:05;6.65;;;4.90;;
75993;SDS011;64680;53.800;9.988;2023-08-06T10:22:33;6.85;;;5.35;;
75993;SDS011;64680;53.800;9.988;2023-08-06T10:24:59;9.95;;;5.68;;
75993;SDS011;64680;53.800;9.988;2023-08-06T10:27:35;10.50;;;6.32;;
75993;SDS011;64680;53.800;9.988;2023-08-06T10:33:06;9.05;;;5.85;;
75993;SDS011;64680;53.800;9.988;2023-08-06T10:35:36;9.70;;;5.88;;
75993;SDS011;64680;53.800;9.988;2023-08-06T10:38:15;7.70;;;5.13;;
75993;SDS011;64680;53.800;9.988;2023-08-06T10:43:25;9.98;;;5.82;;
75993;SDS011;64680;53.800;9.988;2023-08-06T10:46:08;10.55;;;6.32;;
75993;SDS011;64680;53.800;9.988;2023-08-06T10:48:36;8.27;;;5.72;;
75993;SDS011;64680;53.800;9.988;2023-08-06T10:51:02;12.60;;;7.45;;
75993;SDS011;64680;53.800;9.988;2023-08-06T10:53:29;8.63;;;5.60;;
75993;SDS011;64680;53.800;9.988;2023-08-06T10:55:55;8.55;;;5.85;;
75993;SDS011;64680;53.800;9.988;2023-08-06T10:58:21;8.77;;;6.45;;
75993;SDS011;64680;53.800;9.988;2023-08-06T11:00:46;12.60;;;7.95;;
75993;SDS011;64680;53.800;9.988;2023-08-06T11:03:12;7.57;;;5.85;;
75993;SDS011;64680;53.800;9.988;2023-08-06T11:05:38;9.95;;;6.78;;
75993;SDS011;64680;53.800;9.988;2023-08-06T11:08:04;10.13;;;6.60;;
75993;SDS011;64680;53.800;9.988;2023-08-06T11:10:32;9.65;;;5.88;;
75993;SDS011;64680;53.800;9.988;2023-08-06T11:13:02;10.65;;;7.28;;
75993;SDS011;64680;53.800;9.988;2023-08-06T11:15:28;7.25;;;5.20;;
75993;SDS011;64680;53.800;9.988;2023-08-06T11:17:55;10.05;;;5.97;;
75993;SDS011;64680;53.800;9.988;2023-08-06T11:20:21;8.52;;;6.13;;
75993;SDS011;64680;53.800;9.988;2023-08-06T11:22:49;8.30;;;5.72;;
75993;SDS011;64680;53.800;9.988;2023-08-06T11:25:15;10.82;;;7.10;;
75993;SDS011;64680;53.800;9.988;2023-08-06T11:27:40;9.05;;;6.07;;
75993;SDS011;64680;53.800;9.988;2023-08-06T11:30:06;10.80;;;6.72;;
75993;SDS011;64680;53.800;9.988;2023-08-06T11:32:32;8.02;;;5.28;;
75993;SDS011;64680;53.800;9.988;2023-08-06T11:35:08;10.43;;;6.07;;
75993;SDS011;64680;53.800;9.988;2023-08-06T11:37:34;7.70;;;5.07;;
75993;SDS011;64680;53.800;9.988;2023-08-06T11:40:02;7.03;;;5.57;;
75993;SDS011;64680;53.800;9.988;2023-08-06T11:42:36;8.27;;;6.13;;
75993;SDS011;64680;53.800;9.988;2023-08-06T11:45:02;9.20;;;5.75;;
75993;SDS011;64680;53.800;9.988;2023-08-06T11:47:29;7.60;;;5.95;;
75993;SDS011;64680;53.800;9.988;2023-08-06T11:49:55;13.68;;;7.88;;
75993;SDS011;64680;53.800;9.988;2023-08-06T11:52:21;8.68;;;5.85;;
75993;SDS011;64680;53.800;9.988;2023-08-06T11:57:33;8.98;;;6.50;;
75993;SDS011;64680;53.800;9.988;2023-08-06T12:00:20;11.40;;;6.75;;
75993;SDS011;64680;53.800;9.988;2023-08-06T12:02:49;7.82;;;5.45;;
75993;SDS011;64680;53.800;9.988;2023-08-06T12:05:19;6.00;;;4.75;;
75993;SDS011;64680;53.800;9.988;2023-08-06T12:07:52;9.20;;;6.30;;
75993;SDS011;64680;53.800;9.988;2023-08-06T12:10:20;10.35;;;5.95;;
75993;SDS011;64680;53.800;9.988;2023-08-06T12:12:46;11.07;;;7.15;;
75993;SDS011;64680;53.800;9.988;2023-08-06T12:15:14;9.60;;;7.40;;
75993;SDS011;64680;53.800;9.988;2023-08-06T12:17:39;8.82;;;6.15;;
75993;SDS011;64680;53.800;9.988;2023-08-06T12:20:06;7.45;;;5.22;;
75993;SDS011;64680;53.800;9.988;2023-08-06T12:22:32;4.75;;;3.55;;
75993;SDS011;64680;53.800;9.988;2023-08-06T12:25:03;7.55;;;5.05;;
75993;SDS011;64680;53.800;9.988;2023-08-06T12:27:44;6.82;;;4.72;;
75993;SDS011;64680;53.800;9.988;2023-08-06T12:30:11;6.97;;;4.18;;
75993;SDS011;64680;53.800;9.988;2023-08-06T12:32:38;8.05;;;4.13;;
75993;SDS011;64680;53.800;9.988;2023-08-06T12:35:04;4.38;;;3.75;;
75993;SDS011;64680;53.800;9.988;2023-08-06T12:37:30;5.55;;;3.45;;
75993;SDS011;64680;53.800;9.988;2023-08-06T12:39:55;7.22;;;3.55;;
75993;SDS011;64680;53.800;9.988;2023-08-06T12:42:21;4.78;;;2.83;;
75993;SDS011;64680;53.800;9.988;2023-08-06T12:44:50;5.45;;;2.88;;
75993;SDS011;64680;53.800;9.988;2023-08-06T12:47:15;6.65;;;3.00;;
75993;SDS011;64680;53.800;9.988;2023-08-06T12:49:42;4.75;;;2.90;;
75993;SDS011;64680;53.800;9.988;2023-08-06T12:52:07;4.32;;;2.38;;
75993;SDS011;64680;53.800;9.988;2023-08-06T12:54:34;4.55;;;3.03;;
75993;SDS011;64680;53.800;9.988;2023-08-06T12:59:28;5.35;;;3.10;;
75993;SDS011;64680;53.800;9.988;2023-08-06T13:01:53;4.70;;;3.20;;
75993;SDS011;64680;53.800;9.988;2023-08-06T13:04:19;6.57;;;3.63;;
75993;SDS011;64680;53.800;9.988;2023-08-06T13:06:44;5.47;;;3.75;;
75993;SDS011;64680;53.800;9.988;2023-08-06T13:09:10;4.78;;;3.38;;
75993;SDS011;64680;53.800;9.988;2023-08-06T13:11:36;6.53;;;3.22;;
75993;SDS011;64680;53.800;9.988;2023-08-06T13:14:06;7.25;;;3.70;;
75993;SDS011;64680;53.800;9.988;2023-08-06T13:16:34;5.68;;;3.22;;
75993;SDS011;64680;53.800;9.988;2023-08-06T13:19:00;3.33;;;2.33;;
75993;SDS011;64680;53.800;9.988;2023-08-06T13:21:35;3.92;;;2.72;;
75993;SDS011;64680;53.800;9.988;2023-08-06T13:24:23;4.28;;;2.88;;
75993;SDS011;64680;53.800;9.988;2023-08-06T13:26:49;5.20;;;3.10;;
75993;SDS011;64680;53.800;9.988;2023-08-06T13:29:15;5.38;;;3.17;;
75993;SDS011;64680;53.800;9.988;2023-08-06T13:31:40;5.97;;;3.35;;
75993;SDS011;64680;53.800;9.988;2023-08-06T13:34:06;4.80;;;3.17;;
75993;SDS011;64680;53.800;9.988;2023-08-06T13:36:31;6.18;;;3.65;;
75993;SDS011;64680;53.800;9.988;2023-08-06T13:38:57;5.93;;;2.97;;
75993;SDS011;64680;53.800;9.988;2023-08-06T13:41:22;3.22;;;2.30;;
75993;SDS011;64680;53.800;9.988;2023-08-06T13:43:48;5.80;;;2.35;;
75993;SDS011;64680;53.800;9.988;2023-08-06T13:46:14;3.47;;;2.33;;
75993;SDS011;64680;53.800;9.988;2023-08-06T13:48:43;3.85;;;2.50;;
75993;SDS011;64680;53.800;9.988;2023-08-06T13:51:09;4.43;;;2.63;;
75993;SDS011;64680;53.800;9.988;2023-08-06T13:53:36;6.20;;;3.20;;
75993;SDS011;64680;53.800;9.988;2023-08-06T13:56:02;5.47;;;3.15;;
75993;SDS011;64680;53.800;9.988;2023-08-06T13:58:28;4.00;;;3.33;;
75993;SDS011;64680;53.800;9.988;2023-08-06T14:00:53;5.05;;;2.60;;
75993;SDS011;64680;53.800;9.988;2023-08-06T14:03:19;7.20;;;3.22;;
75993;SDS011;64680;53.800;9.988;2023-08-06T14:05:45;5.72;;;2.65;;
75993;SDS011;64680;53.800;9.988;2023-08-06T14:08:11;4.68;;;2.42;;
75993;SDS011;64680;53.800;9.988;2023-08-06T14:10:37;4.63;;;3.13;;
75993;SDS011;64680;53.800;9.988;2023-08-06T14:13:02;5.65;;;3.17;;
75993;SDS011;64680;53.800;9.988;2023-08-06T14:15:28;4.45;;;2.67;;
75993;SDS011;64680;53.800;9.988;2023-08-06T14:17:54;3.72;;;2.63;;
75993;SDS011;64680;53.800;9.988;2023-08-06T14:20:19;4.43;;;2.47;;
75993;SDS011;64680;53.800;9.988;2023-08-06T14:22:45;5.95;;;3.10;;
75993;SDS011;64680;53.800;9.988;2023-08-06T14:25:10;4.93;;;2.65;;
75993;SDS011;64680;53.800;9.988;2023-08-06T14:27:36;5.53;;;2.85;;
75993;SDS011;64680;53.800;9.988;2023-08-06T14:30:04;5.93;;;2.80;;
75993;SDS011;64680;53.800;9.988;2023-08-06T14:32:31;3.78;;;2.40;;
75993;SDS011;64680;53.800;9.988;2023-08-06T14:34:56;4.25;;;2.85;;
75993;SDS011;64680;53.800;9.988;2023-08-06T14:37:23;5.03;;;2.95;;
75993;SDS011;64680;53.800;9.988;2023-08-06T14:39:49;7.07;;;3.92;;
75993;SDS011;64680;53.800;9.988;2023-08-06T14:42:15;5.78;;;3.10;;
75993;SDS011;64680;53.800;9.988;2023-08-06T14:44:41;7.38;;;3.63;;
75993;SDS011;64680;53.800;9.988;2023-08-06T14:47:06;6.40;;;3.30;;
75993;SDS011;64680;53.800;9.988;2023-08-06T14:49:32;4.43;;;3.05;;
75993;SDS011;64680;53.800;9.988;2023-08-06T14:51:57;3.85;;;3.05;;
75993;SDS011;64680;53.800;9.988;2023-08-06T14:54:25;5.00;;;2.80;;
75993;SDS011;64680;53.800;9.988;2023-08-06T14:56:51;3.80;;;2.45;;
75993;SDS011;64680;53.800;9.988;2023-08-06T14:59:17;4.45;;;3.15;;
75993;SDS011;64680;53.800;9.988;2023-08-06T15:01:43;4.18;;;3.35;;
75993;SDS011;64680;53.800;9.988;2023-08-06T15:04:09;4.90;;;2.97;;
75993;SDS011;64680;53.800;9.988;2023-08-06T15:06:34;4.90;;;3.00;;
75993;SDS011;64680;53.800;9.988;2023-08-06T15:09:00;4.30;;;3.25;;
75993;SDS011;64680;53.800;9.988;2023-08-06T15:11:26;4.90;;;3.60;;
75993;SDS011;64680;53.800;9.988;2023-08-06T15:13:52;5.03;;;3.20;;